Time;durP1;ratioP1;P1;durP2;ratioP2;P2;SDS_P1;SDS_P2;PMS_P1;PMS_P2;Temp;Humidity;BMP_temperature;BMP_pressure;BME280_temperature;BME280_humidity;BME280_pressure;Samples;Min_cycle;Max_cycle;Signal;HPM_P1;HPM_P2
2022/04/30 00:00:32;;;;;;;13.90;7.80;;;3.70;90.50;;;;;;5100686;28;20031;-70
2022/04/30 00:02:59;;;;;;;18.13;7.60;;;3.60;90.40;;;;;;5103360;28;20034;-70
2022/04/30 00:05:25;;;;;;;18.88;7.60;;;3.60;90.70;;;;;;5095116;28;20035;-70
2022/04/30 00:07:51;;;;;;;16.30;7.30;;;3.60;90.70;;;;;;5086639;28;20299;-70
2022/04/30 00:10:17;;;;;;;20.23;7.90;;;3.50;90.50;;;;;;5108709;28;20071;-70
2022/04/30 00:12:42;;;;;;;13.93;7.13;;;3.50;90.70;;;;;;5098516;28;20043;-70
2022/04/30 00:15:09;;;;;;;17.30;7.28;;;3.50;90.80;;;;;;5100453;28;20028;-70
2022/04/30 00:17:34;;;;;;;14.05;7.20;;;3.40;90.80;;;;;;5092285;28;20032;-70
2022/04/30 00:20:00;;;;;;;17.50;7.43;;;3.30;90.80;;;;;;5104512;28;20038;-70
2022/04/30 00:22:26;;;;;;;14.27;7.57;;;3.30;90.80;;;;;;5114061;28;20032;-70
2022/04/30 00:24:51;;;;;;;11.55;6.60;;;3.30;90.80;;;;;;5104607;28;20470;-70
2022/04/30 00:27:17;;;;;;;16.15;7.50;;;3.20;90.70;;;;;;5109854;28;20043;-70
2022/04/30 00:29:42;;;;;;;14.35;8.35;;;3.20;91.00;;;;;;5106572;28;20050;-70
2022/04/30 00:32:08;;;;;;;19.13;8.07;;;3.20;91.10;;;;;;5102602;28;20032;-70
2022/04/30 00:34:33;;;;;;;17.15;8.05;;;3.20;91.40;;;;;;5097459;28;20092;-70
2022/04/30 00:37:02;;;;;;;16.48;8.63;;;3.20;91.40;;;;;;5112669;28;20467;-70
2022/04/30 00:39:30;;;;;;;18.55;8.70;;;3.20;91.60;;;;;;5112765;28;20028;-70
2022/04/30 00:41:55;;;;;;;14.35;8.15;;;3.10;91.50;;;;;;5110559;28;20088;-70
2022/04/30 00:44:21;;;;;;;17.92;8.50;;;3.00;91.50;;;;;;5109078;28;20040;-70
2022/04/30 00:46:46;;;;;;;12.70;7.45;;;3.00;91.50;;;;;;5098420;28;20043;-70
2022/04/30 00:49:12;;;;;;;12.57;7.72;;;2.90;91.40;;;;;;5106454;28;20076;-70
2022/04/30 00:51:45;;;;;;;15.82;8.15;;;2.90;91.50;;;;;;5096347;28;20411;-70
2022/04/30 00:54:12;;;;;;;18.95;8.90;;;2.80;91.30;;;;;;5106877;28;20036;-70
2022/04/30 00:56:43;;;;;;;14.75;8.00;;;2.80;91.30;;;;;;5111718;28;20028;-70
2022/04/30 00:59:10;;;;;;;15.75;8.57;;;2.80;91.40;;;;;;5101937;28;20043;-70
2022/04/30 01:01:36;;;;;;;18.42;8.68;;;2.80;91.50;;;;;;5092582;28;20035;-70
2022/04/30 01:04:03;;;;;;;17.98;9.43;;;2.80;91.50;;;;;;5107862;28;20414;-70
2022/04/30 01:06:49;;;;;;;15.57;8.90;;;2.80;91.50;;;;;;5102755;28;20032;-70
2022/04/30 01:09:28;;;;;;;15.55;9.40;;;2.70;91.30;;;;;;5097837;28;20395;-70
2022/04/30 01:12:06;;;;;;;19.75;10.20;;;2.80;91.50;;;;;;5109905;28;20023;-70
2022/04/30 01:14:32;;;;;;;18.08;10.07;;;2.70;91.50;;;;;;5110624;28;20136;-70
2022/04/30 01:16:59;;;;;;;21.40;11.25;;;2.80;91.60;;;;;;5090071;28;20111;-70
2022/04/30 01:19:27;;;;;;;19.00;11.00;;;2.80;91.80;;;;;;5103524;28;20023;-70
2022/04/30 01:21:57;;;;;;;20.65;11.57;;;2.80;91.80;;;;;;5110340;28;20028;-70
2022/04/30 01:24:25;;;;;;;22.60;11.25;;;2.80;91.80;;;;;;5097686;28;20406;-70
2022/04/30 01:26:52;;;;;;;22.13;12.35;;;2.80;91.80;;;;;;5101289;28;20054;-70
2022/04/30 01:29:19;;;;;;;18.98;12.07;;;2.80;91.80;;;;;;5088997;28;20032;-70
2022/04/30 01:37:24;;;;;;;25.45;12.15;;;2.70;92.00;;;;;;5095013;28;20031;-70
2022/04/30 01:39:57;;;;;;;20.83;11.40;;;2.70;92.10;;;;;;5085300;28;20108;-70
2022/04/30 01:42:24;;;;;;;25.50;12.45;;;2.60;92.00;;;;;;5107101;28;20055;-70
2022/04/30 01:44:51;;;;;;;22.27;11.77;;;2.60;92.10;;;;;;5107974;28;20466;-70
2022/04/30 01:47:17;;;;;;;21.58;10.70;;;2.60;92.10;;;;;;5109076;28;20043;-70
2022/04/30 01:49:43;;;;;;;20.55;11.38;;;2.60;92.10;;;;;;5109642;28;20037;-70
2022/04/30 01:52:10;;;;;;;24.55;12.40;;;2.60;92.20;;;;;;5098578;28;20393;-70
2022/04/30 01:54:36;;;;;;;26.75;14.18;;;2.60;92.40;;;;;;5090176;28;20118;-70
2022/04/30 01:57:03;;;;;;;26.80;13.00;;;2.70;92.50;;;;;;5082623;28;20368;-70
2022/04/30 01:59:28;;;;;;;24.35;12.68;;;2.60;92.40;;;;;;5100585;28;20035;-70
2022/04/30 02:01:55;;;;;;;25.65;12.85;;;2.50;92.40;;;;;;5098966;28;20580;-70
2022/04/30 02:04:22;;;;;;;21.63;12.25;;;2.40;92.40;;;;;;5089558;28;20051;-70
2022/04/30 02:06:48;;;;;;;26.48;12.68;;;2.40;92.50;;;;;;5099999;28;20027;-70
2022/04/30 02:09:14;;;;;;;21.98;13.20;;;2.50;92.50;;;;;;5108155;28;20046;-70
2022/04/30 02:11:42;;;;;;;28.70;13.15;;;2.30;92.30;;;;;;5105200;28;20036;-70
2022/04/30 02:14:13;;;;;;;24.48;12.55;;;2.30;92.20;;;;;;5099677;28;20027;-70
2022/04/30 02:16:40;;;;;;;20.63;11.48;;;2.20;92.10;;;;;;5098830;28;20047;-70
2022/04/30 02:19:07;;;;;;;24.13;12.63;;;2.20;92.30;;;;;;5109642;28;20058;-70
2022/04/30 02:21:33;;;;;;;22.15;12.77;;;2.20;92.30;;;;;;5103665;28;20032;-70
2022/04/30 02:24:00;;;;;;;22.17;12.57;;;2.20;92.30;;;;;;5091731;28;20032;-70
2022/04/30 02:26:27;;;;;;;22.83;12.80;;;2.20;92.30;;;;;;5104647;28;20441;-70
2022/04/30 02:28:57;;;;;;;25.10;13.43;;;2.20;92.40;;;;;;5097504;28;20379;-70
2022/04/30 02:31:25;;;;;;;30.40;14.25;;;2.30;92.50;;;;;;5101997;28;20382;-70
2022/04/30 02:33:54;;;;;;;23.50;14.18;;;2.20;92.50;;;;;;5096196;28;20068;-70
2022/04/30 02:36:23;;;;;;;27.65;13.88;;;2.20;92.50;;;;;;5105238;28;20399;-70
2022/04/30 02:38:49;;;;;;;27.60;14.00;;;2.20;92.30;;;;;;5099841;28;20116;-70
2022/04/30 02:41:14;;;;;;;24.45;13.70;;;2.10;92.50;;;;;;5098045;28;20081;-70
2022/04/30 02:43:40;;;;;;;20.40;12.52;;;2.10;92.40;;;;;;5103249;28;20039;-70
2022/04/30 02:46:05;;;;;;;21.70;12.55;;;2.10;92.40;;;;;;5101629;28;20036;-70
2022/04/30 02:48:30;;;;;;;30.45;14.20;;;2.10;92.40;;;;;;5096489;28;20034;-70
2022/04/30 02:51:00;;;;;;;26.20;13.65;;;2.10;92.50;;;;;;5107888;28;20035;-70
2022/04/30 02:53:25;;;;;;;27.50;13.88;;;2.10;92.50;;;;;;5109398;28;20028;-69
2022/04/30 02:55:51;;;;;;;21.33;13.20;;;2.10;92.50;;;;;;5110540;28;20430;-70
2022/04/30 03:01:00;;;;;;;22.52;12.93;;;2.00;92.60;;;;;;5105218;28;20501;-70
2022/04/30 03:03:29;;;;;;;23.45;13.00;;;1.90;92.50;;;;;;5107471;28;20106;-70
2022/04/30 03:05:56;;;;;;;24.33;13.00;;;1.90;92.40;;;;;;5104072;28;20082;-70
2022/04/30 03:08:23;;;;;;;23.63;11.48;;;1.80;92.50;;;;;;5097885;28;20379;-70
2022/04/30 03:10:54;;;;;;;23.35;11.82;;;1.80;92.50;;;;;;5094748;28;20158;-70
2022/04/30 03:13:20;;;;;;;22.48;11.75;;;1.70;92.50;;;;;;5103236;28;20036;-70
2022/04/30 03:15:51;;;;;;;24.85;11.65;;;1.70;92.70;;;;;;5104698;28;20050;-70
2022/04/30 03:23:48;;;;;;;23.02;11.88;;;1.70;93.00;;;;;;5101013;28;20049;-70
2022/04/30 03:26:15;;;;;;;24.60;12.60;;;1.70;93.00;;;;;;5111257;28;20107;-70
2022/04/30 03:28:42;;;;;;;23.70;11.82;;;1.70;93.00;;;;;;5108102;28;20027;-70
2022/04/30 03:31:10;;;;;;;26.25;12.32;;;1.70;93.00;;;;;;5102136;28;20032;-70
2022/04/30 03:33:36;;;;;;;21.55;11.85;;;1.60;92.80;;;;;;5101094;28;20028;-70
2022/04/30 03:36:02;;;;;;;21.00;12.85;;;1.60;92.70;;;;;;5082089;28;20034;-70
2022/04/30 03:38:27;;;;;;;24.67;13.48;;;1.60;92.70;;;;;;5096770;28;20028;-70
2022/04/30 03:40:53;;;;;;;26.50;13.35;;;1.60;92.80;;;;;;5104826;28;20138;-70
2022/04/30 03:43:19;;;;;;;21.13;12.60;;;1.60;92.70;;;;;;5097494;28;20417;-70
2022/04/30 03:45:45;;;;;;;23.00;14.18;;;1.60;92.60;;;;;;5097202;28;20032;-70
2022/04/30 03:48:12;;;;;;;39.63;15.93;;;1.50;92.60;;;;;;5094921;28;20106;-70
2022/04/30 03:50:38;;;;;;;24.60;14.00;;;1.60;92.70;;;;;;5110245;28;20023;-70
2022/04/30 03:53:04;;;;;;;22.35;14.15;;;1.50;92.60;;;;;;5108569;28;20024;-70
2022/04/30 03:55:30;;;;;;;23.38;14.57;;;1.50;92.70;;;;;;5105370;28;20032;-70
2022/04/30 03:57:56;;;;;;;21.85;14.35;;;1.60;92.80;;;;;;5094729;28;20055;-70
2022/04/30 04:00:22;;;;;;;24.08;14.10;;;1.60;93.00;;;;;;5106150;28;20109;-70
2022/04/30 04:02:48;;;;;;;23.50;14.48;;;1.60;93.00;;;;;;5107348;28;20370;-70
2022/04/30 04:05:15;;;;;;;20.77;13.85;;;1.50;92.80;;;;;;5113685;28;20031;-70
2022/04/30 04:07:42;;;;;;;26.33;13.60;;;1.60;92.90;;;;;;5109714;28;20020;-70
2022/04/30 04:10:09;;;;;;;29.55;13.77;;;1.60;93.00;;;;;;5103958;28;20028;-70
2022/04/30 04:12:38;;;;;;;24.77;13.10;;;1.50;92.90;;;;;;5105703;28;20113;-70
2022/04/30 04:17:50;;;;;;;24.50;13.70;;;1.60;93.00;;;;;;5101152;28;20026;-68
2022/04/30 04:20:18;;;;;;;27.25;14.00;;;1.70;93.00;;;;;;5087206;28;20024;-69
2022/04/30 04:22:45;;;;;;;28.60;14.23;;;1.70;92.90;;;;;;5105221;28;20040;-68
2022/04/30 04:27:56;;;;;;;28.52;14.20;;;1.70;92.70;;;;;;5106002;28;20085;-68
2022/04/30 04:30:26;;;;;;;25.95;14.05;;;1.70;92.90;;;;;;5106845;28;20104;-68
2022/04/30 04:32:52;;;;;;;40.67;16.65;;;1.80;92.90;;;;;;5110259;28;20024;-68
2022/04/30 04:35:18;;;;;;;31.23;14.70;;;1.70;92.90;;;;;;5108901;28;20038;-68
2022/04/30 04:37:45;;;;;;;24.00;13.88;;;1.80;92.80;;;;;;5107305;28;20020;-68
2022/04/30 04:40:12;;;;;;;30.23;15.00;;;1.80;92.90;;;;;;5110035;28;20042;-68
2022/04/30 04:42:38;;;;;;;27.60;14.00;;;1.90;93.00;;;;;;5102532;28;20131;-68
2022/04/30 04:45:05;;;;;;;32.45;14.68;;;1.90;92.90;;;;;;5109494;28;20039;-68
2022/04/30 04:47:31;;;;;;;37.92;15.25;;;2.00;92.80;;;;;;5107112;28;20039;-68
2022/04/30 04:49:56;;;;;;;36.40;16.25;;;2.10;92.80;;;;;;5110029;28;20382;-68
2022/04/30 04:52:22;;;;;;;44.90;16.60;;;2.10;92.80;;;;;;5109199;28;20039;-68
2022/04/30 04:54:48;;;;;;;32.28;16.92;;;2.20;92.80;;;;;;5105084;28;20459;-68
2022/04/30 04:57:15;;;;;;;37.03;17.15;;;2.30;92.80;;;;;;5104607;28;20046;-68
2022/04/30 04:59:41;;;;;;;42.75;16.85;;;2.40;92.70;;;;;;5107736;28;20486;-68
2022/04/30 05:02:06;;;;;;;32.15;16.40;;;2.50;92.80;;;;;;5082074;28;20036;-69
2022/04/30 05:04:33;;;;;;;43.38;15.82;;;2.50;92.90;;;;;;5104932;28;20047;-69
2022/04/30 05:06:59;;;;;;;32.75;15.80;;;2.60;93.10;;;;;;5102935;28;20352;-68
2022/04/30 05:09:25;;;;;;;26.02;13.77;;;2.60;93.10;;;;;;5108147;28;20547;-69
2022/04/30 05:11:55;;;;;;;22.30;13.85;;;2.70;93.20;;;;;;5088597;28;20106;-68
2022/04/30 05:14:20;;;;;;;21.13;13.50;;;2.70;93.20;;;;;;5106127;28;20177;-69
2022/04/30 05:16:46;;;;;;;22.08;12.85;;;2.80;93.30;;;;;;5106261;28;20510;-69
2022/04/30 05:19:11;;;;;;;20.92;12.63;;;2.80;93.30;;;;;;5100911;28;20031;-69
2022/04/30 05:21:37;;;;;;;30.75;12.13;;;2.80;93.30;;;;;;5103621;28;20024;-69
2022/04/30 05:24:02;;;;;;;22.15;11.85;;;2.80;93.30;;;;;;5110899;28;20110;-68
2022/04/30 05:26:28;;;;;;;20.98;12.10;;;2.80;93.40;;;;;;5100154;28;20456;-68
2022/04/30 05:28:54;;;;;;;35.17;12.50;;;2.90;93.60;;;;;;5092998;28;20023;-70
2022/04/30 05:31:19;;;;;;;27.60;12.95;;;3.10;93.80;;;;;;5106373;28;20114;-70
2022/04/30 05:33:44;;;;;;;46.83;12.75;;;3.10;93.70;;;;;;5106983;28;20110;-70
2022/04/30 05:36:10;;;;;;;33.05;12.68;;;3.20;93.60;;;;;;5080494;28;20096;-70
2022/04/30 05:38:36;;;;;;;48.47;13.05;;;3.20;93.80;;;;;;5102675;28;20570;-69
2022/04/30 05:41:02;;;;;;;40.53;12.82;;;3.30;93.90;;;;;;5107953;28;20047;-70
2022/04/30 05:43:28;;;;;;;27.50;12.27;;;3.50;94.00;;;;;;5089730;28;20038;-70
2022/04/30 05:45:54;;;;;;;21.88;11.95;;;3.60;93.90;;;;;;5107989;28;20058;-70
2022/04/30 05:48:19;;;;;;;45.88;12.85;;;3.70;93.90;;;;;;5108129;28;20066;-69
2022/04/30 05:50:45;;;;;;;24.70;12.27;;;3.70;93.90;;;;;;5104136;28;20035;-69
2022/04/30 05:53:11;;;;;;;25.00;13.00;;;3.90;94.20;;;;;;5098730;28;20570;-69
2022/04/30 05:55:36;;;;;;;25.10;13.70;;;4.00;94.10;;;;;;5104986;28;20039;-69
2022/04/30 05:58:03;;;;;;;23.55;13.32;;;4.10;94.30;;;;;;5105915;28;20023;-70
2022/04/30 06:00:28;;;;;;;20.77;13.52;;;4.20;94.20;;;;;;5103647;28;20074;-69
2022/04/30 06:02:55;;;;;;;21.20;12.80;;;4.30;94.20;;;;;;5099828;28;20064;-69
2022/04/30 06:05:21;;;;;;;23.00;13.68;;;4.60;94.70;;;;;;5100517;28;20093;-70
2022/04/30 06:07:46;;;;;;;18.02;11.75;;;4.70;94.40;;;;;;5104059;28;20027;-69
2022/04/30 06:10:12;;;;;;;16.35;10.90;;;4.90;94.30;;;;;;5104512;28;20415;-69
2022/04/30 06:12:38;;;;;;;18.00;12.32;;;5.00;94.20;;;;;;5098721;28;20035;-69
2022/04/30 06:15:04;;;;;;;13.25;9.45;;;5.20;94.10;;;;;;5105679;28;20122;-70
2022/04/30 06:17:29;;;;;;;16.60;9.35;;;5.20;93.50;;;;;;5100363;28;20043;-69
2022/04/30 06:19:55;;;;;;;12.38;8.60;;;5.20;93.40;;;;;;5108969;28;20386;-69
2022/04/30 06:22:21;;;;;;;17.77;9.23;;;5.30;93.00;;;;;;5107124;28;20042;-69
2022/04/30 06:24:46;;;;;;;11.13;8.30;;;5.40;93.10;;;;;;5109540;28;20040;-69
2022/04/30 06:27:12;;;;;;;12.48;7.80;;;5.60;93.20;;;;;;5105156;28;20471;-70
2022/04/30 06:29:38;;;;;;;12.80;8.38;;;5.80;92.50;;;;;;5107699;28;20375;-69
2022/04/30 06:32:05;;;;;;;15.55;7.85;;;6.00;92.20;;;;;;5109951;28;20030;-70
2022/04/30 06:34:31;;;;;;;12.85;7.60;;;6.10;92.10;;;;;;5106466;28;20035;-70
2022/04/30 06:36:56;;;;;;;14.70;7.72;;;6.20;91.70;;;;;;5105980;28;20503;-70
2022/04/30 06:39:22;;;;;;;15.15;6.82;;;6.40;91.40;;;;;;5103835;28;20057;-70
2022/04/30 06:41:47;;;;;;;11.30;6.13;;;6.60;91.10;;;;;;5108565;28;20498;-70
2022/04/30 06:44:13;;;;;;;12.15;5.97;;;6.70;90.40;;;;;;5106623;28;20067;-70
2022/04/30 06:46:38;;;;;;;10.73;6.75;;;6.80;90.10;;;;;;5103472;28;20047;-70
2022/04/30 06:49:04;;;;;;;10.23;6.65;;;6.80;89.30;;;;;;5105490;28;20035;-70
2022/04/30 06:51:29;;;;;;;13.88;6.57;;;7.30;89.50;;;;;;5108243;28;20027;-70
2022/04/30 06:59:23;;;;;;;8.70;5.80;;;7.70;87.00;;;;;;5105929;28;20375;-70
2022/04/30 07:01:57;;;;;;;9.05;5.60;;;8.00;86.80;;;;;;5101369;28;20023;-70
2022/04/30 07:04:24;;;;;;;9.32;5.45;;;8.10;86.00;;;;;;5105675;28;20063;-70
2022/04/30 07:06:51;;;;;;;8.05;4.95;;;8.50;86.10;;;;;;5101884;28;20108;-70
2022/04/30 07:09:16;;;;;;;8.30;4.63;;;8.40;84.30;;;;;;5091267;28;20491;-70
2022/04/30 07:11:42;;;;;;;8.02;4.82;;;9.00;84.60;;;;;;5105276;28;20033;-70
2022/04/30 07:14:08;;;;;;;6.63;3.97;;;9.20;82.20;;;;;;5101836;28;20039;-73
2022/04/30 07:16:34;;;;;;;10.60;3.97;;;9.10;80.30;;;;;;5106803;28;20035;-70
2022/04/30 07:19:01;;;;;;;6.68;3.90;;;9.20;79.90;;;;;;5104156;28;20405;-72
2022/04/30 07:21:28;;;;;;;8.00;3.75;;;9.40;79.30;;;;;;5101574;28;20031;-72
2022/04/30 07:23:54;;;;;;;5.97;3.30;;;9.70;78.70;;;;;;5101741;28;20054;-72
2022/04/30 07:26:19;;;;;;;7.68;3.70;;;9.70;77.30;;;;;;5104952;28;20474;-74
2022/04/30 07:28:46;;;;;;;7.03;3.10;;;9.70;76.90;;;;;;5112240;28;20080;-72
2022/04/30 07:31:12;;;;;;;7.78;3.35;;;10.00;76.40;;;;;;5102196;28;20023;-72
2022/04/30 07:33:37;;;;;;;8.10;3.70;;;10.40;76.70;;;;;;5113909;28;20035;-73
2022/04/30 07:36:03;;;;;;;8.00;3.70;;;10.80;76.90;;;;;;5107928;28;20047;-73
2022/04/30 07:38:29;;;;;;;6.68;3.65;;;11.00;75.40;;;;;;5096798;28;20025;-73
2022/04/30 07:40:54;;;;;;;8.85;3.28;;;11.50;74.80;;;;;;5105144;28;20051;-73
2022/04/30 07:43:20;;;;;;;6.30;3.10;;;11.20;71.50;;;;;;5107566;28;20429;-72
2022/04/30 07:45:45;;;;;;;8.63;3.00;;;10.70;71.00;;;;;;5104470;28;20390;-73
2022/04/30 07:48:12;;;;;;;6.97;2.90;;;10.90;72.00;;;;;;5107646;28;20130;-73
2022/04/30 07:50:37;;;;;;;15.63;4.20;;;11.10;72.40;;;;;;5109442;28;20023;-73
2022/04/30 07:53:07;;;;;;;6.55;2.78;;;11.70;72.60;;;;;;5106617;28;20558;-73
2022/04/30 07:55:34;;;;;;;5.28;2.65;;;11.70;70.50;;;;;;5108716;28;20546;-73
2022/04/30 07:58:02;;;;;;;4.40;2.58;;;11.80;70.30;;;;;;5105906;28;20028;-73
2022/04/30 08:00:28;;;;;;;4.07;1.95;;;11.80;69.70;;;;;;5106466;28;20544;-72
2022/04/30 08:02:57;;;;;;;4.55;2.13;;;11.70;69.10;;;;;;5108263;28;20034;-73
2022/04/30 08:05:26;;;;;;;8.45;2.78;;;12.00;68.50;;;;;;5097071;28;20067;-73
2022/04/30 08:07:54;;;;;;;5.15;2.53;;;12.10;67.50;;;;;;5106856;28;20027;-73
2022/04/30 08:10:20;;;;;;;5.78;2.72;;;12.20;67.90;;;;;;5100388;28;20028;-73
2022/04/30 08:12:46;;;;;;;5.38;2.90;;;12.10;68.00;;;;;;5102696;28;20371;-73
2022/04/30 08:15:11;;;;;;;4.90;2.33;;;12.00;69.30;;;;;;5104884;28;20073;-71
2022/04/30 08:17:40;;;;;;;6.72;2.60;;;11.70;68.60;;;;;;5104666;28;20032;-73
2022/04/30 08:20:07;;;;;;;7.03;2.58;;;11.80;69.80;;;;;;5106302;28;20038;-72
2022/04/30 08:22:33;;;;;;;3.75;2.33;;;12.10;67.90;;;;;;5106713;28;20032;-74
2022/04/30 08:25:03;;;;;;;7.65;2.45;;;12.00;68.00;;;;;;5107095;28;20431;-73
2022/04/30 08:27:29;;;;;;;4.80;2.50;;;12.10;68.30;;;;;;5104875;28;20031;-77
2022/04/30 08:29:54;;;;;;;6.72;2.30;;;12.20;68.70;;;;;;5111830;28;20501;-72
2022/04/30 08:32:26;;;;;;;5.60;2.60;;;12.00;68.10;;;;;;5101386;28;20036;-72
2022/04/30 08:34:52;;;;;;;8.30;2.60;;;11.90;68.80;;;;;;5102305;28;20042;-75
2022/04/30 08:37:18;;;;;;;4.60;2.30;;;11.80;68.20;;;;;;5114666;28;20024;-75
2022/04/30 08:39:44;;;;;;;3.60;2.08;;;11.90;68.60;;;;;;5109473;28;20097;-71
2022/04/30 08:42:12;;;;;;;4.25;2.10;;;12.00;66.50;;;;;;5108119;28;20043;-73
2022/04/30 08:44:38;;;;;;;3.58;1.70;;;12.10;63.70;;;;;;5109233;28;20081;-75
2022/04/30 08:47:05;;;;;;;6.68;1.92;;;12.20;63.00;;;;;;5108869;28;20040;-74
2022/04/30 08:49:31;;;;;;;2.42;1.30;;;12.80;64.60;;;;;;5103022;28;20032;-73
2022/04/30 08:51:57;;;;;;;5.30;1.70;;;12.70;61.50;;;;;;5108153;28;20266;-75
2022/04/30 08:54:23;;;;;;;5.22;1.73;;;12.60;61.00;;;;;;5101904;28;20031;-73
2022/04/30 08:56:56;;;;;;;5.82;2.00;;;13.30;60.30;;;;;;5100952;28;20426;-73
2022/04/30 08:59:22;;;;;;;3.78;1.45;;;13.30;59.80;;;;;;5089353;28;20136;-73
2022/04/30 09:01:51;;;;;;;2.67;1.70;;;13.80;58.30;;;;;;5099254;28;20035;-72
2022/04/30 09:04:17;;;;;;;4.18;1.33;;;13.60;58.00;;;;;;5082250;28;20043;-72
2022/04/30 09:06:47;;;;;;;2.97;1.60;;;14.60;56.20;;;;;;5109763;28;20034;-72
2022/04/30 09:09:25;;;;;;;4.97;1.70;;;15.10;57.70;;;;;;5103576;28;20099;-72
2022/04/30 09:11:53;;;;;;;2.30;1.50;;;15.40;52.60;;;;;;5089917;28;20055;-72
2022/04/30 09:14:28;;;;;;;2.30;1.17;;;15.10;54.40;;;;;;5108990;28;20419;-72
2022/04/30 09:17:12;;;;;;;5.15;1.63;;;15.20;51.90;;;;;;5111387;28;20027;-72
2022/04/30 09:19:52;;;;;;;3.85;1.88;;;15.30;53.50;;;;;;5097575;28;20081;-72
2022/04/30 09:22:33;;;;;;;4.18;1.75;;;14.50;53.70;;;;;;5101081;28;20123;-72
2022/04/30 09:24:59;;;;;;;2.67;1.67;;;14.80;54.00;;;;;;5099753;28;20086;-72
2022/04/30 09:27:25;;;;;;;5.20;1.52;;;14.80;50.40;;;;;;5109623;28;20059;-72
2022/04/30 09:29:52;;;;;;;2.55;1.50;;;14.80;50.80;;;;;;5099427;28;20070;-72
2022/04/30 09:32:22;;;;;;;4.78;1.50;;;14.80;51.90;;;;;;5096922;28;20058;-72
2022/04/30 09:37:43;;;;;;;6.68;1.60;;;14.30;50.50;;;;;;5098880;28;20047;-73
2022/04/30 09:40:15;;;;;;;5.18;1.50;;;14.30;50.90;;;;;;5105825;28;20023;-72
2022/04/30 09:42:42;;;;;;;2.90;1.25;;;14.50;52.00;;;;;;5105644;28;20131;-74
2022/04/30 09:45:08;;;;;;;2.40;1.20;;;14.90;52.10;;;;;;5103001;28;20499;-73
2022/04/30 09:47:34;;;;;;;2.28;1.27;;;14.30;50.00;;;;;;5106228;28;20041;-73
2022/04/30 09:55:34;;;;;;;3.88;1.23;;;14.70;52.00;;;;;;5106720;28;20039;-73
2022/04/30 09:58:03;;;;;;;2.78;1.05;;;14.60;51.20;;;;;;5111085;28;20024;-73
2022/04/30 10:00:34;;;;;;;6.13;1.33;;;14.10;49.30;;;;;;5104351;28;20031;-72
2022/04/30 10:03:02;;;;;;;2.05;1.02;;;14.00;49.10;;;;;;5099935;28;20667;-70
2022/04/30 10:05:30;;;;;;;3.17;1.30;;;14.00;48.70;;;;;;5100351;28;20852;-73
2022/04/30 10:07:56;;;;;;;2.35;1.08;;;14.50;48.20;;;;;;5109146;28;20031;-73
2022/04/30 10:10:31;;;;;;;3.42;1.02;;;15.00;50.00;;;;;;5082522;28;20374;-74
2022/04/30 10:13:09;;;;;;;2.80;1.02;;;15.40;50.10;;;;;;5110953;28;20024;-73
2022/04/30 10:15:51;;;;;;;3.67;1.25;;;15.80;46.10;;;;;;5109550;28;20402;-73
2022/04/30 10:18:19;;;;;;;3.35;0.90;;;15.70;44.80;;;;;;5104630;28;20118;-72
2022/04/30 10:20:52;;;;;;;2.92;1.00;;;15.30;44.10;;;;;;5101894;28;20471;-72
2022/04/30 10:23:17;;;;;;;3.38;0.88;;;15.20;45.90;;;;;;5101770;28;20036;-73
2022/04/30 10:25:48;;;;;;;2.25;1.00;;;15.40;47.30;;;;;;5106179;28;20061;-73
2022/04/30 10:28:17;;;;;;;5.35;0.98;;;15.70;47.60;;;;;;5109172;28;20036;-71
2022/04/30 10:31:05;;;;;;;2.70;0.90;;;15.60;44.90;;;;;;5102815;28;20028;-75
2022/04/30 10:33:32;;;;;;;2.30;1.27;;;16.00;43.90;;;;;;5107340;28;20046;-72
2022/04/30 10:36:08;;;;;;;4.85;1.33;;;16.00;45.50;;;;;;5094546;28;20047;-75
2022/04/30 10:38:34;;;;;;;3.50;1.20;;;15.40;44.80;;;;;;5098751;28;20031;-73
2022/04/30 10:41:01;;;;;;;6.93;2.08;;;15.70;46.50;;;;;;5104248;28;20051;-75
2022/04/30 10:43:32;;;;;;;5.95;1.83;;;16.10;46.10;;;;;;5105726;28;20024;-77
2022/04/30 10:45:59;;;;;;;4.45;1.67;;;16.00;44.50;;;;;;5108764;28;20028;-77
2022/04/30 10:48:25;;;;;;;5.82;1.70;;;16.10;43.20;;;;;;5107166;28;20486;-75
2022/04/30 10:51:05;;;;;;;4.05;1.50;;;15.80;43.20;;;;;;5105982;28;20042;-75
2022/04/30 10:53:32;;;;;;;5.47;1.23;;;15.80;44.70;;;;;;5105257;28;20035;-75
2022/04/30 10:56:00;;;;;;;5.53;1.80;;;16.00;45.50;;;;;;5103730;28;20081;-74
2022/04/30 10:58:36;;;;;;;2.63;1.15;;;15.80;44.60;;;;;;5102423;28;20034;-71
2022/04/30 11:01:20;;;;;;;5.03;3.10;;;16.10;44.70;;;;;;5103287;28;20046;-73
2022/04/30 11:03:48;;;;;;;4.30;1.58;;;16.30;43.40;;;;;;5105394;28;20495;-75
2022/04/30 11:06:24;;;;;;;4.65;1.48;;;16.20;45.20;;;;;;5104990;28;20034;-74
2022/04/30 11:09:06;;;;;;;5.00;1.30;;;16.30;43.70;;;;;;5086597;28;20055;-72
2022/04/30 11:11:34;;;;;;;4.28;2.08;;;15.80;41.90;;;;;;5101537;28;20587;-72
2022/04/30 11:14:10;;;;;;;4.30;2.25;;;16.00;44.50;;;;;;5108159;28;20517;-72
2022/04/30 11:16:37;;;;;;;16.88;10.00;;;15.80;43.20;;;;;;5103600;28;20027;-73
2022/04/30 11:19:09;;;;;;;5.85;2.00;;;15.80;45.00;;;;;;5104764;28;20023;-74
2022/04/30 11:21:43;;;;;;;9.93;6.35;;;15.60;42.00;;;;;;5104092;28;20066;-74
2022/04/30 11:24:11;;;;;;;53.22;33.00;;;15.80;47.40;;;;;;5103710;28;20028;-75
2022/04/30 11:26:41;;;;;;;103.00;73.82;;;15.40;48.60;;;;;;5094645;28;20043;-75
2022/04/30 11:29:13;;;;;;;20.07;14.80;;;15.90;50.30;;;;;;5100460;28;20036;-74
2022/04/30 11:31:40;;;;;;;74.10;48.70;;;15.60;48.40;;;;;;5103736;28;20036;-76
2022/04/30 11:34:12;;;;;;;18.02;13.75;;;15.90;48.30;;;;;;5107131;28;20134;-78
2022/04/30 11:36:41;;;;;;;22.80;11.23;;;15.50;48.50;;;;;;5098021;28;20122;-75
2022/04/30 11:39:06;;;;;;;17.15;10.00;;;15.70;45.50;;;;;;5100946;28;20444;-75
2022/04/30 11:41:41;;;;;;;6.22;3.20;;;15.30;47.10;;;;;;5092996;28;20056;-76
2022/04/30 11:44:09;;;;;;;5.55;1.83;;;15.80;44.40;;;;;;5097087;28;20088;-76
2022/04/30 11:46:39;;;;;;;4.55;1.98;;;16.10;42.40;;;;;;5101963;28;20478;-76
2022/04/30 11:49:11;;;;;;;4.78;3.15;;;16.70;41.90;;;;;;5096868;28;20050;-75
2022/04/30 11:51:38;;;;;;;3.92;2.00;;;17.00;39.40;;;;;;5095420;28;20043;-74
2022/04/30 11:54:08;;;;;;;2.35;1.20;;;17.40;41.30;;;;;;5105338;28;20059;-74
2022/04/30 11:56:34;;;;;;;5.60;1.70;;;17.50;41.20;;;;;;5091030;28;20028;-73
2022/04/30 11:59:00;;;;;;;1.80;0.98;;;17.70;40.00;;;;;;5103741;28;20028;-74
2022/04/30 12:01:29;;;;;;;1.85;1.30;;;16.20;40.20;;;;;;5097650;28;20036;-73
2022/04/30 12:04:05;;;;;;;2.58;1.40;;;16.00;42.10;;;;;;5097827;28;20553;-72
2022/04/30 12:06:31;;;;;;;5.53;1.40;;;15.50;41.50;;;;;;5101491;28;20119;-71
2022/04/30 12:08:57;;;;;;;4.22;1.67;;;15.80;41.60;;;;;;5093410;28;20057;-71
2022/04/30 12:11:23;;;;;;;3.15;1.55;;;15.50;42.30;;;;;;5108221;28;20027;-72
2022/04/30 12:14:03;;;;;;;4.60;1.60;;;15.90;42.90;;;;;;5104674;28;20039;-72
2022/04/30 12:16:42;;;;;;;5.90;1.88;;;16.20;43.00;;;;;;5102063;28;20110;-71
2022/04/30 12:25:09;;;;;;;3.20;1.70;;;15.20;45.20;;;;;;5104481;28;20539;-71
2022/04/30 12:27:36;;;;;;;3.97;1.80;;;14.80;44.30;;;;;;5100248;28;20035;-72
2022/04/30 12:30:18;;;;;;;5.35;1.83;;;14.80;44.30;;;;;;5101628;28;20088;-71
2022/04/30 12:32:51;;;;;;;3.33;1.63;;;15.00;44.70;;;;;;5107725;28;20023;-75
2022/04/30 12:35:38;;;;;;;3.38;1.67;;;15.40;46.30;;;;;;5104888;28;20062;-75
2022/04/30 12:38:14;;;;;;;4.75;1.38;;;15.50;44.90;;;;;;5090173;28;20395;-75
2022/04/30 12:40:47;;;;;;;5.85;1.70;;;15.70;46.20;;;;;;5100776;28;20463;-75
2022/04/30 12:43:13;;;;;;;5.13;1.40;;;15.80;44.10;;;;;;5104594;28;20054;-75
2022/04/30 12:45:45;;;;;;;7.32;2.28;;;15.90;46.80;;;;;;5103577;28;20036;-75
2022/04/30 12:48:11;;;;;;;4.55;1.85;;;15.20;45.00;;;;;;5106812;28;20190;-75
2022/04/30 12:50:38;;;;;;;3.65;1.98;;;15.10;47.40;;;;;;5100916;28;20123;-75
2022/04/30 12:53:09;;;;;;;5.47;2.08;;;14.90;48.50;;;;;;5108080;28;20032;-75
2022/04/30 12:55:35;;;;;;;4.00;1.65;;;14.80;48.50;;;;;;5108181;28;20028;-75
2022/04/30 12:58:01;;;;;;;2.67;1.65;;;14.50;48.10;;;;;;5105776;28;20087;-75
2022/04/30 13:00:26;;;;;;;5.90;2.10;;;14.60;49.70;;;;;;5086580;28;20124;-75
2022/04/30 13:02:53;;;;;;;3.63;1.83;;;14.60;49.30;;;;;;5094184;28;20028;-75
2022/04/30 13:05:19;;;;;;;4.15;2.15;;;14.70;49.50;;;;;;5085328;28;20406;-74
2022/04/30 13:07:45;;;;;;;3.90;1.90;;;15.00;49.20;;;;;;5104076;28;20027;-77
2022/04/30 13:15:41;;;;;;;6.38;2.20;;;15.40;47.50;;;;;;5110080;28;20097;-77
2022/04/30 13:18:08;;;;;;;3.97;2.25;;;15.50;47.90;;;;;;5102940;28;20031;-76
2022/04/30 13:20:34;;;;;;;7.53;2.38;;;15.90;46.10;;;;;;5108843;28;20027;-77
2022/04/30 13:23:00;;;;;;;5.53;2.03;;;16.30;44.50;;;;;;5095356;28;20030;-76
2022/04/30 13:25:28;;;;;;;9.57;2.15;;;16.20;44.00;;;;;;5081747;28;20395;-77
2022/04/30 13:27:55;;;;;;;5.63;1.83;;;17.20;44.70;;;;;;5105474;28;20024;-77
2022/04/30 13:30:25;;;;;;;6.72;2.50;;;17.20;43.00;;;;;;5109207;28;20116;-78